South River, Canada
Current Conditions -  °F | °C
As of 6:00 PM on Tuesday 25 Nov 2014 (Local Time) from CYYB Reporting Station
Snow Showers Snow Showers  
Wind Chill: 13°   Ceiling: 900
Heat Index: 25°   Visibility: 2mi
Dew Point: 23°   Wind: 14mph
Humidity: 93%   Direction: 300°WNW
Pressure: 29.87"   Gusts: NA
Location:  45.85°N, 79.37°W
Report Text: CYYB 252300Z 30012KT 260V320 2SM -SHSN OVC009 M04/M05 A2987 RMK SF8 CU EMBDD PRESRR SLP132
Loading
Personal Weather Stations






























Interactive Weather Map New forecast layout! Learn more

10-Day Weather Forecast

Advertisements
Track Severe Weather on mobile